sensor_id;sensor_type;location;lat;lon;timestamp;P1;durP1;ratioP1;P2;durP2;ratioP2
8254;SDS011;4167;48.162;11.542;2022-08-18T00:01:38;111.23;;;39.53;;
8254;SDS011;4167;48.162;11.542;2022-08-18T00:04:05;112.00;;;39.10;;
8254;SDS011;4167;48.162;11.542;2022-08-18T00:06:32;70.65;;;38.08;;
8254;SDS011;4167;48.162;11.542;2022-08-18T00:08:59;82.23;;;38.37;;
8254;SDS011;4167;48.162;11.542;2022-08-18T00:11:29;92.50;;;38.50;;
8254;SDS011;4167;48.162;11.542;2022-08-18T00:13:59;75.97;;;37.75;;
8254;SDS011;4167;48.162;11.542;2022-08-18T00:16:25;67.03;;;37.75;;
8254;SDS011;4167;48.162;11.542;2022-08-18T00:18:52;123.15;;;39.88;;
8254;SDS011;4167;48.162;11.542;2022-08-18T00:21:18;72.85;;;37.70;;
8254;SDS011;4167;48.162;11.542;2022-08-18T00:23:45;80.55;;;38.08;;
8254;SDS011;4167;48.162;11.542;2022-08-18T00:26:11;115.50;;;39.13;;
8254;SDS011;4167;48.162;11.542;2022-08-18T00:28:38;152.63;;;41.00;;
8254;SDS011;4167;48.162;11.542;2022-08-18T00:31:06;94.33;;;38.13;;
8254;SDS011;4167;48.162;11.542;2022-08-18T00:33:32;85.03;;;37.83;;
8254;SDS011;4167;48.162;11.542;2022-08-18T00:35:59;87.20;;;37.72;;
8254;SDS011;4167;48.162;11.542;2022-08-18T00:38:25;123.72;;;39.85;;
8254;SDS011;4167;48.162;11.542;2022-08-18T00:40:53;72.90;;;37.10;;
8254;SDS011;4167;48.162;11.542;2022-08-18T00:43:22;90.03;;;37.67;;
8254;SDS011;4167;48.162;11.542;2022-08-18T00:45:51;79.17;;;37.27;;
8254;SDS011;4167;48.162;11.542;2022-08-18T00:48:19;269.83;;;45.33;;
8254;SDS011;4167;48.162;11.542;2022-08-18T00:50:47;77.20;;;38.38;;
8254;SDS011;4167;48.162;11.542;2022-08-18T00:53:16;110.18;;;39.35;;
8254;SDS011;4167;48.162;11.542;2022-08-18T00:55:46;108.82;;;38.70;;
8254;SDS011;4167;48.162;11.542;2022-08-18T00:58:14;106.30;;;38.20;;
8254;SDS011;4167;48.162;11.542;2022-08-18T01:00:43;83.22;;;37.78;;
8254;SDS011;4167;48.162;11.542;2022-08-18T01:03:11;82.87;;;37.50;;
8254;SDS011;4167;48.162;11.542;2022-08-18T01:05:42;58.85;;;36.65;;
8254;SDS011;4167;48.162;11.542;2022-08-18T01:08:12;73.57;;;37.00;;
8254;SDS011;4167;48.162;11.542;2022-08-18T01:10:39;75.93;;;37.83;;
8254;SDS011;4167;48.162;11.542;2022-08-18T01:13:06;70.53;;;36.97;;
8254;SDS011;4167;48.162;11.542;2022-08-18T01:15:33;64.07;;;36.38;;
8254;SDS011;4167;48.162;11.542;2022-08-18T01:18:00;63.70;;;36.43;;
8254;SDS011;4167;48.162;11.542;2022-08-18T01:20:51;82.40;;;37.92;;
8254;SDS011;4167;48.162;11.542;2022-08-18T01:23:41;85.10;;;37.83;;
8254;SDS011;4167;48.162;11.542;2022-08-18T01:26:07;68.03;;;36.77;;
8254;SDS011;4167;48.162;11.542;2022-08-18T01:28:35;87.53;;;37.50;;
8254;SDS011;4167;48.162;11.542;2022-08-18T01:31:03;85.45;;;37.58;;
8254;SDS011;4167;48.162;11.542;2022-08-18T01:33:31;114.18;;;37.92;;
8254;SDS011;4167;48.162;11.542;2022-08-18T01:36:01;77.50;;;36.70;;
8254;SDS011;4167;48.162;11.542;2022-08-18T01:38:41;76.37;;;37.03;;
8254;SDS011;4167;48.162;11.542;2022-08-18T01:41:08;79.53;;;37.30;;
8254;SDS011;4167;48.162;11.542;2022-08-18T01:43:35;93.68;;;37.00;;
8254;SDS011;4167;48.162;11.542;2022-08-18T01:46:02;119.22;;;38.47;;
8254;SDS011;4167;48.162;11.542;2022-08-18T01:48:29;81.55;;;37.15;;
8254;SDS011;4167;48.162;11.542;2022-08-18T01:50:58;87.00;;;37.17;;
8254;SDS011;4167;48.162;11.542;2022-08-18T01:53:24;69.72;;;36.55;;
8254;SDS011;4167;48.162;11.542;2022-08-18T01:55:53;70.68;;;36.63;;
8254;SDS011;4167;48.162;11.542;2022-08-18T01:58:20;66.73;;;36.73;;
8254;SDS011;4167;48.162;11.542;2022-08-18T02:00:52;113.83;;;38.53;;
8254;SDS011;4167;48.162;11.542;2022-08-18T02:03:20;81.83;;;37.33;;
8254;SDS011;4167;48.162;11.542;2022-08-18T02:05:52;82.90;;;37.10;;
8254;SDS011;4167;48.162;11.542;2022-08-18T02:08:22;60.87;;;35.60;;
8254;SDS011;4167;48.162;11.542;2022-08-18T02:10:48;80.10;;;36.60;;
8254;SDS011;4167;48.162;11.542;2022-08-18T02:13:16;65.87;;;36.43;;
8254;SDS011;4167;48.162;11.542;2022-08-18T02:15:43;60.47;;;36.20;;
8254;SDS011;4167;48.162;11.542;2022-08-18T02:18:12;86.53;;;37.50;;
8254;SDS011;4167;48.162;11.542;2022-08-18T02:20:39;73.63;;;37.03;;
8254;SDS011;4167;48.162;11.542;2022-08-18T02:23:06;68.03;;;37.07;;
8254;SDS011;4167;48.162;11.542;2022-08-18T02:25:32;93.53;;;37.77;;
8254;SDS011;4167;48.162;11.542;2022-08-18T02:27:58;77.63;;;36.60;;
8254;SDS011;4167;48.162;11.542;2022-08-18T02:30:26;95.17;;;37.50;;
8254;SDS011;4167;48.162;11.542;2022-08-18T02:32:53;84.20;;;37.13;;
8254;SDS011;4167;48.162;11.542;2022-08-18T02:35:20;111.77;;;38.33;;
8254;SDS011;4167;48.162;11.542;2022-08-18T02:37:47;106.57;;;37.33;;
8254;SDS011;4167;48.162;11.542;2022-08-18T02:40:13;94.57;;;37.87;;
8254;SDS011;4167;48.162;11.542;2022-08-18T02:42:40;95.00;;;37.53;;
8254;SDS011;4167;48.162;11.542;2022-08-18T02:45:07;97.17;;;38.27;;
8254;SDS011;4167;48.162;11.542;2022-08-18T02:47:35;87.77;;;37.13;;
8254;SDS011;4167;48.162;11.542;2022-08-18T02:50:02;97.93;;;37.30;;
8254;SDS011;4167;48.162;11.542;2022-08-18T02:52:29;122.73;;;38.70;;
8254;SDS011;4167;48.162;11.542;2022-08-18T02:54:56;73.40;;;37.07;;
8254;SDS011;4167;48.162;11.542;2022-08-18T02:57:23;121.63;;;38.70;;
8254;SDS011;4167;48.162;11.542;2022-08-18T02:59:49;74.70;;;36.47;;
8254;SDS011;4167;48.162;11.542;2022-08-18T03:02:16;199.33;;;41.93;;
8254;SDS011;4167;48.162;11.542;2022-08-18T03:04:44;79.23;;;36.93;;
8254;SDS011;4167;48.162;11.542;2022-08-18T03:07:11;70.20;;;36.97;;
8254;SDS011;4167;48.162;11.542;2022-08-18T03:09:38;117.83;;;38.53;;
8254;SDS011;4167;48.162;11.542;2022-08-18T03:12:06;94.00;;;37.67;;
8254;SDS011;4167;48.162;11.542;2022-08-18T03:14:33;78.57;;;36.40;;
8254;SDS011;4167;48.162;11.542;2022-08-18T03:17:02;102.03;;;38.03;;
8254;SDS011;4167;48.162;11.542;2022-08-18T03:19:29;104.07;;;37.97;;
8254;SDS011;4167;48.162;11.542;2022-08-18T03:21:58;87.57;;;37.77;;
8254;SDS011;4167;48.162;11.542;2022-08-18T03:24:24;85.43;;;36.70;;
8254;SDS011;4167;48.162;11.542;2022-08-18T03:26:52;80.50;;;36.53;;
8254;SDS011;4167;48.162;11.542;2022-08-18T03:29:19;157.27;;;39.30;;
8254;SDS011;4167;48.162;11.542;2022-08-18T03:31:46;83.30;;;36.80;;
8254;SDS011;4167;48.162;11.542;2022-08-18T03:34:13;95.70;;;37.53;;
8254;SDS011;4167;48.162;11.542;2022-08-18T03:36:43;73.47;;;36.23;;
8254;SDS011;4167;48.162;11.542;2022-08-18T03:39:11;79.23;;;36.23;;
8254;SDS011;4167;48.162;11.542;2022-08-18T03:41:39;106.87;;;38.00;;
8254;SDS011;4167;48.162;11.542;2022-08-18T03:44:07;78.40;;;36.47;;
8254;SDS011;4167;48.162;11.542;2022-08-18T03:46:33;77.97;;;36.10;;
8254;SDS011;4167;48.162;11.542;2022-08-18T03:49:00;79.13;;;36.60;;
8254;SDS011;4167;48.162;11.542;2022-08-18T03:51:28;206.03;;;41.50;;
8254;SDS011;4167;48.162;11.542;2022-08-18T03:53:56;71.60;;;37.17;;
8254;SDS011;4167;48.162;11.542;2022-08-18T03:56:26;98.87;;;37.97;;
8254;SDS011;4167;48.162;11.542;2022-08-18T03:58:56;75.67;;;36.87;;
8254;SDS011;4167;48.162;11.542;2022-08-18T04:01:25;110.57;;;38.37;;
8254;SDS011;4167;48.162;11.542;2022-08-18T04:03:54;106.87;;;38.33;;
8254;SDS011;4167;48.162;11.542;2022-08-18T04:06:22;81.03;;;37.33;;
8254;SDS011;4167;48.162;11.542;2022-08-18T04:08:50;92.27;;;37.43;;
8254;SDS011;4167;48.162;11.542;2022-08-18T04:11:17;74.40;;;37.00;;
8254;SDS011;4167;48.162;11.542;2022-08-18T04:13:45;190.23;;;41.03;;
8254;SDS011;4167;48.162;11.542;2022-08-18T04:16:12;109.40;;;37.77;;
8254;SDS011;4167;48.162;11.542;2022-08-18T04:18:38;81.60;;;37.23;;
8254;SDS011;4167;48.162;11.542;2022-08-18T04:21:09;91.50;;;37.73;;
8254;SDS011;4167;48.162;11.542;2022-08-18T04:23:37;85.83;;;37.67;;
8254;SDS011;4167;48.162;11.542;2022-08-18T04:26:06;215.27;;;42.40;;
8254;SDS011;4167;48.162;11.542;2022-08-18T04:28:33;84.63;;;37.00;;
8254;SDS011;4167;48.162;11.542;2022-08-18T04:31:06;80.53;;;37.17;;
8254;SDS011;4167;48.162;11.542;2022-08-18T04:33:33;97.60;;;38.33;;
8254;SDS011;4167;48.162;11.542;2022-08-18T04:36:05;131.40;;;39.43;;
8254;SDS011;4167;48.162;11.542;2022-08-18T04:38:32;77.10;;;37.07;;
8254;SDS011;4167;48.162;11.542;2022-08-18T04:40:59;105.03;;;38.03;;
8254;SDS011;4167;48.162;11.542;2022-08-18T04:43:25;107.27;;;38.97;;
8254;SDS011;4167;48.162;11.542;2022-08-18T04:45:52;277.50;;;44.67;;
8254;SDS011;4167;48.162;11.542;2022-08-18T04:48:20;144.43;;;39.97;;
8254;SDS011;4167;48.162;11.542;2022-08-18T04:50:46;123.30;;;39.50;;
8254;SDS011;4167;48.162;11.542;2022-08-18T04:53:13;161.07;;;43.17;;
8254;SDS011;4167;48.162;11.542;2022-08-18T04:55:57;57.55;;;36.95;;
8254;SDS011;4167;48.162;11.542;2022-08-18T04:58:24;208.93;;;43.45;;
8254;SDS011;4167;48.162;11.542;2022-08-18T05:00:55;92.18;;;39.25;;
8254;SDS011;4167;48.162;11.542;2022-08-18T05:03:23;158.20;;;41.55;;
8254;SDS011;4167;48.162;11.542;2022-08-18T05:05:50;121.68;;;40.22;;
8254;SDS011;4167;48.162;11.542;2022-08-18T05:08:17;93.45;;;39.17;;
8254;SDS011;4167;48.162;11.542;2022-08-18T05:10:43;143.23;;;41.65;;
8254;SDS011;4167;48.162;11.542;2022-08-18T05:13:12;185.52;;;42.67;;
8254;SDS011;4167;48.162;11.542;2022-08-18T05:15:40;137.63;;;41.13;;
8254;SDS011;4167;48.162;11.542;2022-08-18T05:18:07;146.18;;;40.90;;
8254;SDS011;4167;48.162;11.542;2022-08-18T05:20:35;252.48;;;45.83;;
8254;SDS011;4167;48.162;11.542;2022-08-18T05:23:04;145.98;;;41.78;;
8254;SDS011;4167;48.162;11.542;2022-08-18T05:25:31;156.38;;;43.25;;
8254;SDS011;4167;48.162;11.542;2022-08-18T05:27:58;230.70;;;45.75;;
8254;SDS011;4167;48.162;11.542;2022-08-18T05:30:24;188.48;;;44.20;;
8254;SDS011;4167;48.162;11.542;2022-08-18T05:32:51;112.10;;;40.25;;
8254;SDS011;4167;48.162;11.542;2022-08-18T05:35:21;218.52;;;45.55;;
8254;SDS011;4167;48.162;11.542;2022-08-18T05:38:06;149.52;;;42.35;;
8254;SDS011;4167;48.162;11.542;2022-08-18T05:40:39;125.22;;;40.85;;
8254;SDS011;4167;48.162;11.542;2022-08-18T05:43:06;189.07;;;43.78;;
8254;SDS011;4167;48.162;11.542;2022-08-18T05:45:34;185.30;;;43.38;;
8254;SDS011;4167;48.162;11.542;2022-08-18T05:48:00;150.88;;;41.13;;
8254;SDS011;4167;48.162;11.542;2022-08-18T05:50:27;152.82;;;41.70;;
8254;SDS011;4167;48.162;11.542;2022-08-18T05:52:57;120.93;;;40.30;;
8254;SDS011;4167;48.162;11.542;2022-08-18T05:55:31;148.55;;;41.63;;
8254;SDS011;4167;48.162;11.542;2022-08-18T05:58:19;117.65;;;39.35;;
8254;SDS011;4167;48.162;11.542;2022-08-18T06:00:49;140.88;;;41.65;;
8254;SDS011;4167;48.162;11.542;2022-08-18T06:03:18;233.90;;;45.13;;
8254;SDS011;4167;48.162;11.542;2022-08-18T06:05:50;215.70;;;44.50;;
8254;SDS011;4167;48.162;11.542;2022-08-18T06:08:19;150.55;;;41.53;;
8254;SDS011;4167;48.162;11.542;2022-08-18T06:10:49;202.25;;;43.55;;
8254;SDS011;4167;48.162;11.542;2022-08-18T06:13:16;260.50;;;45.38;;
8254;SDS011;4167;48.162;11.542;2022-08-18T06:15:46;173.02;;;41.55;;
8254;SDS011;4167;48.162;11.542;2022-08-18T06:18:22;171.10;;;41.30;;
8254;SDS011;4167;48.162;11.542;2022-08-18T06:21:05;203.70;;;42.92;;
8254;SDS011;4167;48.162;11.542;2022-08-18T06:23:38;147.68;;;40.33;;
8254;SDS011;4167;48.162;11.542;2022-08-18T06:26:10;174.27;;;41.50;;
8254;SDS011;4167;48.162;11.542;2022-08-18T06:28:45;296.33;;;46.65;;
8254;SDS011;4167;48.162;11.542;2022-08-18T06:31:20;143.57;;;40.45;;
8254;SDS011;4167;48.162;11.542;2022-08-18T06:33:53;319.50;;;47.40;;
8254;SDS011;4167;48.162;11.542;2022-08-18T06:36:26;265.00;;;45.42;;
8254;SDS011;4167;48.162;11.542;2022-08-18T06:39:02;178.20;;;42.25;;
8254;SDS011;4167;48.162;11.542;2022-08-18T06:41:35;162.20;;;41.30;;
8254;SDS011;4167;48.162;11.542;2022-08-18T06:44:05;123.43;;;39.13;;
8254;SDS011;4167;48.162;11.542;2022-08-18T06:46:40;135.18;;;40.10;;
8254;SDS011;4167;48.162;11.542;2022-08-18T06:49:10;174.98;;;42.17;;
8254;SDS011;4167;48.162;11.542;2022-08-18T06:51:39;251.45;;;44.90;;
8254;SDS011;4167;48.162;11.542;2022-08-18T06:54:07;170.27;;;41.75;;
8254;SDS011;4167;48.162;11.542;2022-08-18T06:56:45;183.68;;;42.22;;
8254;SDS011;4167;48.162;11.542;2022-08-18T06:59:19;145.60;;;40.95;;
8254;SDS011;4167;48.162;11.542;2022-08-18T07:01:47;168.43;;;41.33;;
8254;SDS011;4167;48.162;11.542;2022-08-18T07:04:29;199.55;;;42.50;;
8254;SDS011;4167;48.162;11.542;2022-08-18T07:07:14;228.10;;;43.67;;
8254;SDS011;4167;48.162;11.542;2022-08-18T07:09:42;129.02;;;39.83;;
8254;SDS011;4167;48.162;11.542;2022-08-18T07:12:11;205.93;;;43.00;;
8254;SDS011;4167;48.162;11.542;2022-08-18T07:14:47;138.68;;;40.83;;
8254;SDS011;4167;48.162;11.542;2022-08-18T07:17:18;307.80;;;46.92;;
8254;SDS011;4167;48.162;11.542;2022-08-18T07:19:53;179.73;;;43.60;;
8254;SDS011;4167;48.162;11.542;2022-08-18T07:22:21;212.57;;;44.17;;
8254;SDS011;4167;48.162;11.542;2022-08-18T07:24:48;117.80;;;40.10;;
8254;SDS011;4167;48.162;11.542;2022-08-18T07:27:17;242.80;;;46.40;;
8254;SDS011;4167;48.162;11.542;2022-08-18T07:29:59;148.35;;;41.78;;
8254;SDS011;4167;48.162;11.542;2022-08-18T07:32:28;183.18;;;42.72;;
8254;SDS011;4167;48.162;11.542;2022-08-18T07:34:58;159.00;;;41.83;;
8254;SDS011;4167;48.162;11.542;2022-08-18T07:37:28;173.27;;;42.92;;
8254;SDS011;4167;48.162;11.542;2022-08-18T07:39:58;201.88;;;43.45;;
8254;SDS011;4167;48.162;11.542;2022-08-18T07:42:32;186.15;;;43.25;;
8254;SDS011;4167;48.162;11.542;2022-08-18T07:45:04;181.13;;;43.08;;
8254;SDS011;4167;48.162;11.542;2022-08-18T07:47:36;175.68;;;43.88;;
8254;SDS011;4167;48.162;11.542;2022-08-18T07:50:06;256.05;;;46.67;;
8254;SDS011;4167;48.162;11.542;2022-08-18T07:52:35;223.27;;;45.08;;
8254;SDS011;4167;48.162;11.542;2022-08-18T07:55:05;170.20;;;43.13;;
8254;SDS011;4167;48.162;11.542;2022-08-18T07:57:39;225.52;;;44.53;;
8254;SDS011;4167;48.162;11.542;2022-08-18T08:00:13;179.65;;;44.20;;
8254;SDS011;4167;48.162;11.542;2022-08-18T08:02:45;132.65;;;42.03;;
8254;SDS011;4167;48.162;11.542;2022-08-18T08:05:20;159.20;;;43.35;;
8254;SDS011;4167;48.162;11.542;2022-08-18T08:07:57;246.73;;;46.58;;
8254;SDS011;4167;48.162;11.542;2022-08-18T08:10:28;152.75;;;43.08;;
8254;SDS011;4167;48.162;11.542;2022-08-18T08:13:03;189.68;;;44.25;;
8254;SDS011;4167;48.162;11.542;2022-08-18T08:15:34;144.15;;;42.55;;
8254;SDS011;4167;48.162;11.542;2022-08-18T08:18:08;105.07;;;40.63;;
8254;SDS011;4167;48.162;11.542;2022-08-18T08:20:38;166.32;;;42.53;;
8254;SDS011;4167;48.162;11.542;2022-08-18T08:23:10;152.57;;;42.20;;
8254;SDS011;4167;48.162;11.542;2022-08-18T08:25:44;188.20;;;44.33;;
8254;SDS011;4167;48.162;11.542;2022-08-18T08:28:18;223.68;;;45.80;;
8254;SDS011;4167;48.162;11.542;2022-08-18T08:30:54;207.48;;;44.78;;
8254;SDS011;4167;48.162;11.542;2022-08-18T08:33:30;199.65;;;45.17;;
8254;SDS011;4167;48.162;11.542;2022-08-18T08:36:01;120.43;;;41.83;;
8254;SDS011;4167;48.162;11.542;2022-08-18T08:38:33;181.88;;;44.38;;
8254;SDS011;4167;48.162;11.542;2022-08-18T08:41:07;229.80;;;44.67;;
8254;SDS011;4167;48.162;11.542;2022-08-18T08:43:37;169.18;;;43.40;;
8254;SDS011;4167;48.162;11.542;2022-08-18T08:46:08;156.13;;;42.72;;
8254;SDS011;4167;48.162;11.542;2022-08-18T08:48:39;113.75;;;40.47;;
8254;SDS011;4167;48.162;11.542;2022-08-18T08:51:23;218.88;;;44.97;;
8254;SDS011;4167;48.162;11.542;2022-08-18T08:53:55;254.80;;;46.47;;
8254;SDS011;4167;48.162;11.542;2022-08-18T08:56:25;174.43;;;42.63;;
8254;SDS011;4167;48.162;11.542;2022-08-18T08:58:57;170.65;;;43.17;;
8254;SDS011;4167;48.162;11.542;2022-08-18T09:01:27;186.57;;;44.72;;
8254;SDS011;4167;48.162;11.542;2022-08-18T09:03:58;202.55;;;44.20;;
8254;SDS011;4167;48.162;11.542;2022-08-18T09:06:31;377.45;;;51.05;;
8254;SDS011;4167;48.162;11.542;2022-08-18T09:12:07;185.05;;;43.45;;
8254;SDS011;4167;48.162;11.542;2022-08-18T09:17:41;213.60;;;43.85;;
8254;SDS011;4167;48.162;11.542;2022-08-18T09:20:20;105.30;;;39.67;;
8254;SDS011;4167;48.162;11.542;2022-08-18T09:22:55;117.90;;;40.00;;
8254;SDS011;4167;48.162;11.542;2022-08-18T09:25:42;136.77;;;41.13;;
8254;SDS011;4167;48.162;11.542;2022-08-18T09:28:12;140.90;;;41.25;;
8254;SDS011;4167;48.162;11.542;2022-08-18T09:30:47;182.25;;;43.33;;
8254;SDS011;4167;48.162;11.542;2022-08-18T09:33:24;173.35;;;42.72;;
8254;SDS011;4167;48.162;11.542;2022-08-18T09:36:01;277.65;;;46.75;;
8254;SDS011;4167;48.162;11.542;2022-08-18T09:38:33;346.30;;;50.42;;
8254;SDS011;4167;48.162;11.542;2022-08-18T09:41:20;173.68;;;43.75;;
8254;SDS011;4167;48.162;11.542;2022-08-18T09:43:58;139.48;;;42.15;;
8254;SDS011;4167;48.162;11.542;2022-08-18T09:46:51;185.77;;;43.63;;
8254;SDS011;4167;48.162;11.542;2022-08-18T09:55:05;117.38;;;41.17;;
8254;SDS011;4167;48.162;11.542;2022-08-18T09:57:32;116.95;;;41.10;;
8254;SDS011;4167;48.162;11.542;2022-08-18T10:05:55;259.55;;;45.83;;
8254;SDS011;4167;48.162;11.542;2022-08-18T10:08:37;131.52;;;42.10;;
8254;SDS011;4167;48.162;11.542;2022-08-18T10:11:23;166.68;;;42.65;;
8254;SDS011;4167;48.162;11.542;2022-08-18T10:13:58;180.68;;;43.33;;
8254;SDS011;4167;48.162;11.542;2022-08-18T10:16:34;184.18;;;43.78;;
8254;SDS011;4167;48.162;11.542;2022-08-18T10:19:10;279.40;;;47.10;;
8254;SDS011;4167;48.162;11.542;2022-08-18T10:24:32;179.43;;;43.83;;
8254;SDS011;4167;48.162;11.542;2022-08-18T10:27:01;195.43;;;44.28;;
8254;SDS011;4167;48.162;11.542;2022-08-18T10:29:42;125.63;;;41.40;;
8254;SDS011;4167;48.162;11.542;2022-08-18T10:38:26;153.30;;;42.05;;
8254;SDS011;4167;48.162;11.542;2022-08-18T10:41:02;127.20;;;41.17;;
8254;SDS011;4167;48.162;11.542;2022-08-18T10:43:33;110.13;;;40.65;;
8254;SDS011;4167;48.162;11.542;2022-08-18T10:46:02;85.97;;;40.30;;
8254;SDS011;4167;48.162;11.542;2022-08-18T10:48:30;123.13;;;41.53;;
8254;SDS011;4167;48.162;11.542;2022-08-18T10:51:01;134.57;;;41.53;;
8254;SDS011;4167;48.162;11.542;2022-08-18T10:53:31;176.77;;;43.63;;
8254;SDS011;4167;48.162;11.542;2022-08-18T10:56:02;119.43;;;41.20;;
8254;SDS011;4167;48.162;11.542;2022-08-18T10:58:33;155.20;;;42.80;;
8254;SDS011;4167;48.162;11.542;2022-08-18T11:01:08;148.05;;;42.22;;
8254;SDS011;4167;48.162;11.542;2022-08-18T11:03:47;280.77;;;47.33;;
8254;SDS011;4167;48.162;11.542;2022-08-18T11:06:26;177.45;;;43.58;;
8254;SDS011;4167;48.162;11.542;2022-08-18T11:08:56;163.27;;;42.33;;
8254;SDS011;4167;48.162;11.542;2022-08-18T11:11:34;124.38;;;42.00;;
8254;SDS011;4167;48.162;11.542;2022-08-18T11:14:04;127.68;;;40.58;;
8254;SDS011;4167;48.162;11.542;2022-08-18T11:16:43;212.63;;;44.25;;
8254;SDS011;4167;48.162;11.542;2022-08-18T11:19:15;195.65;;;43.75;;
8254;SDS011;4167;48.162;11.542;2022-08-18T11:21:43;161.82;;;43.10;;
8254;SDS011;4167;48.162;11.542;2022-08-18T11:24:14;132.18;;;41.22;;
8254;SDS011;4167;48.162;11.542;2022-08-18T11:26:43;124.85;;;41.38;;
8254;SDS011;4167;48.162;11.542;2022-08-18T11:29:21;162.57;;;42.28;;
8254;SDS011;4167;48.162;11.542;2022-08-18T11:31:52;187.90;;;43.78;;
8254;SDS011;4167;48.162;11.542;2022-08-18T11:34:21;145.88;;;41.28;;
8254;SDS011;4167;48.162;11.542;2022-08-18T11:36:56;181.38;;;44.40;;
8254;SDS011;4167;48.162;11.542;2022-08-18T11:39:25;168.38;;;42.50;;
8254;SDS011;4167;48.162;11.542;2022-08-18T11:41:52;155.07;;;42.13;;
8254;SDS011;4167;48.162;11.542;2022-08-18T11:44:20;263.15;;;46.28;;
8254;SDS011;4167;48.162;11.542;2022-08-18T11:46:48;339.42;;;50.05;;
8254;SDS011;4167;48.162;11.542;2022-08-18T11:49:15;173.45;;;43.58;;
8254;SDS011;4167;48.162;11.542;2022-08-18T11:51:54;254.63;;;46.22;;
8254;SDS011;4167;48.162;11.542;2022-08-18T11:54:22;235.00;;;45.92;;
8254;SDS011;4167;48.162;11.542;2022-08-18T12:03:06;126.45;;;40.60;;
8254;SDS011;4167;48.162;11.542;2022-08-18T12:05:41;179.35;;;43.38;;
8254;SDS011;4167;48.162;11.542;2022-08-18T12:08:19;170.35;;;42.80;;
8254;SDS011;4167;48.162;11.542;2022-08-18T12:10:59;182.90;;;43.42;;
8254;SDS011;4167;48.162;11.542;2022-08-18T12:13:28;180.38;;;44.88;;
8254;SDS011;4167;48.162;11.542;2022-08-18T12:16:08;199.15;;;44.08;;
8254;SDS011;4167;48.162;11.542;2022-08-18T12:18:36;169.35;;;42.72;;
8254;SDS011;4167;48.162;11.542;2022-08-18T12:21:03;121.63;;;40.45;;
8254;SDS011;4167;48.162;11.542;2022-08-18T12:23:30;220.57;;;45.30;;
8254;SDS011;4167;48.162;11.542;2022-08-18T12:25:59;121.80;;;41.17;;
8254;SDS011;4167;48.162;11.542;2022-08-18T12:28:26;223.95;;;45.30;;
8254;SDS011;4167;48.162;11.542;2022-08-18T12:30:52;153.35;;;42.03;;
8254;SDS011;4167;48.162;11.542;2022-08-18T12:33:19;264.05;;;46.33;;
8254;SDS011;4167;48.162;11.542;2022-08-18T12:35:45;217.88;;;45.17;;
8254;SDS011;4167;48.162;11.542;2022-08-18T12:38:12;213.40;;;44.42;;
8254;SDS011;4167;48.162;11.542;2022-08-18T12:40:41;168.90;;;43.15;;
8254;SDS011;4167;48.162;11.542;2022-08-18T12:43:09;167.18;;;42.42;;
8254;SDS011;4167;48.162;11.542;2022-08-18T12:45:36;167.93;;;42.83;;
8254;SDS011;4167;48.162;11.542;2022-08-18T12:48:03;119.18;;;41.10;;
8254;SDS011;4167;48.162;11.542;2022-08-18T12:50:30;168.77;;;42.72;;
8254;SDS011;4167;48.162;11.542;2022-08-18T12:52:56;301.35;;;47.97;;
8254;SDS011;4167;48.162;11.542;2022-08-18T12:55:23;139.13;;;41.35;;
8254;SDS011;4167;48.162;11.542;2022-08-18T12:57:50;167.85;;;42.72;;
8254;SDS011;4167;48.162;11.542;2022-08-18T13:00:18;157.48;;;43.53;;
8254;SDS011;4167;48.162;11.542;2022-08-18T13:02:45;232.40;;;45.55;;
8254;SDS011;4167;48.162;11.542;2022-08-18T13:05:11;184.60;;;45.03;;
8254;SDS011;4167;48.162;11.542;2022-08-18T13:07:38;243.68;;;45.75;;
8254;SDS011;4167;48.162;11.542;2022-08-18T13:10:06;132.45;;;42.13;;
8254;SDS011;4167;48.162;11.542;2022-08-18T13:12:33;281.38;;;47.65;;
8254;SDS011;4167;48.162;11.542;2022-08-18T13:14:59;218.68;;;45.53;;
8254;SDS011;4167;48.162;11.542;2022-08-18T13:17:27;152.93;;;41.72;;
8254;SDS011;4167;48.162;11.542;2022-08-18T13:19:55;232.40;;;45.10;;
8254;SDS011;4167;48.162;11.542;2022-08-18T13:22:21;218.95;;;45.00;;
8254;SDS011;4167;48.162;11.542;2022-08-18T13:24:48;135.90;;;41.50;;
8254;SDS011;4167;48.162;11.542;2022-08-18T13:27:14;273.77;;;47.60;;
8254;SDS011;4167;48.162;11.542;2022-08-18T13:29:42;198.30;;;43.80;;
8254;SDS011;4167;48.162;11.542;2022-08-18T13:32:08;207.73;;;44.53;;
8254;SDS011;4167;48.162;11.542;2022-08-18T13:34:36;116.88;;;41.25;;
8254;SDS011;4167;48.162;11.542;2022-08-18T13:37:03;123.55;;;41.75;;
8254;SDS011;4167;48.162;11.542;2022-08-18T13:39:29;216.52;;;44.22;;
8254;SDS011;4167;48.162;11.542;2022-08-18T13:41:56;168.50;;;43.15;;
8254;SDS011;4167;48.162;11.542;2022-08-18T13:44:22;125.05;;;42.13;;
8254;SDS011;4167;48.162;11.542;2022-08-18T13:46:49;307.08;;;49.15;;
8254;SDS011;4167;48.162;11.542;2022-08-18T13:49:16;289.80;;;47.88;;
8254;SDS011;4167;48.162;11.542;2022-08-18T13:51:45;132.50;;;41.50;;
8254;SDS011;4167;48.162;11.542;2022-08-18T13:54:15;191.73;;;44.05;;
8254;SDS011;4167;48.162;11.542;2022-08-18T13:56:43;165.50;;;42.55;;
8254;SDS011;4167;48.162;11.542;2022-08-18T13:59:10;234.38;;;45.72;;
8254;SDS011;4167;48.162;11.542;2022-08-18T14:01:37;179.85;;;43.85;;
8254;SDS011;4167;48.162;11.542;2022-08-18T14:04:04;235.35;;;45.22;;
8254;SDS011;4167;48.162;11.542;2022-08-18T14:06:30;260.25;;;46.97;;
8254;SDS011;4167;48.162;11.542;2022-08-18T14:08:58;180.32;;;43.97;;
8254;SDS011;4167;48.162;11.542;2022-08-18T14:11:26;213.80;;;45.30;;
8254;SDS011;4167;48.162;11.542;2022-08-18T14:13:54;245.80;;;46.47;;
8254;SDS011;4167;48.162;11.542;2022-08-18T14:16:21;151.82;;;43.22;;
8254;SDS011;4167;48.162;11.542;2022-08-18T14:18:47;264.88;;;47.50;;
8254;SDS011;4167;48.162;11.542;2022-08-18T14:21:28;174.75;;;45.13;;
8254;SDS011;4167;48.162;11.542;2022-08-18T14:24:13;192.10;;;44.97;;
8254;SDS011;4167;48.162;11.542;2022-08-18T14:26:57;131.60;;;42.30;;
8254;SDS011;4167;48.162;11.542;2022-08-18T14:29:23;175.75;;;43.83;;
8254;SDS011;4167;48.162;11.542;2022-08-18T14:31:50;149.70;;;42.42;;
8254;SDS011;4167;48.162;11.542;2022-08-18T14:34:17;135.32;;;41.70;;
8254;SDS011;4167;48.162;11.542;2022-08-18T14:36:43;249.75;;;46.10;;
8254;SDS011;4167;48.162;11.542;2022-08-18T14:39:10;128.85;;;41.47;;
8254;SDS011;4167;48.162;11.542;2022-08-18T14:41:38;216.30;;;44.72;;
8254;SDS011;4167;48.162;11.542;2022-08-18T14:44:05;286.08;;;47.42;;
8254;SDS011;4167;48.162;11.542;2022-08-18T14:46:32;215.40;;;44.05;;
8254;SDS011;4167;48.162;11.542;2022-08-18T14:48:58;182.85;;;43.55;;
8254;SDS011;4167;48.162;11.542;2022-08-18T14:51:25;177.82;;;43.65;;
8254;SDS011;4167;48.162;11.542;2022-08-18T14:53:52;287.30;;;47.20;;
8254;SDS011;4167;48.162;11.542;2022-08-18T14:56:18;174.65;;;43.30;;
8254;SDS011;4167;48.162;11.542;2022-08-18T14:58:46;213.15;;;44.47;;
8254;SDS011;4167;48.162;11.542;2022-08-18T15:01:12;300.98;;;47.42;;
8254;SDS011;4167;48.162;11.542;2022-08-18T15:03:41;221.43;;;43.75;;
8254;SDS011;4167;48.162;11.542;2022-08-18T15:06:08;170.23;;;41.88;;
8254;SDS011;4167;48.162;11.542;2022-08-18T15:08:35;176.80;;;43.03;;
8254;SDS011;4167;48.162;11.542;2022-08-18T15:11:02;232.82;;;44.33;;
8254;SDS011;4167;48.162;11.542;2022-08-18T15:13:31;312.60;;;47.63;;
8254;SDS011;4167;48.162;11.542;2022-08-18T15:16:00;193.95;;;43.63;;